Dades meteomassalio
Diari Summary for Abril 16, 2017 Units:  Metric    English   Both
« Previous Day
Next Day »
Diari Semanal Mensual Anual Personalitzat
  Maxima: Minima: Mijana:
Temperatura: -17.8 °C -12.3 °C -8.9 °C
Rosada: -17.8 °C -15.4 °C -14.6 °C
Humitat: Humidity % 29 % 53 %
Velocitat del vent: 0 km/h 0 km/h 15.9 km/h
Racha vent: 0 km/h - -
Vent:- - West
Pressio: 0 hPa 34476.3 hPa -
Pluja: 0 mm    
Historical Graphs
 
 
Tabular Data for Abril 16, 2017
Time Temperature Dew Point Pressure Wind Wind Speed Wind Gust Humidity Rainfall Rate (Hourly) solar Conditions
-17.8 °C -17.8 °C 0 hPa Calm     Humidity % 0 mm SolarRadiationWatts/m^2 W/m2 Conditions
00:00 -9.6 °C -14.4 °C 34591.4 hPa WNW 23.8 km/h 23.8 km/h 56 % 0 mm 0.0 W/m2 CLR
00:05 -9.7 °C -14.4 °C 34591.4 hPa West 50.7 km/h 50.7 km/h 57 % 0 mm 0.0 W/m2 CLR
00:10 -9.7 °C -14.4 °C 34591.4 hPa West 32.8 km/h 32.8 km/h 57 % 0 mm 0.0 W/m2 CLR
00:15 -9.8 °C -14.3 °C 34591.4 hPa West 44.7 km/h 44.7 km/h 58 % 0 mm 0.0 W/m2 CLR
00:20 -9.8 °C -14.3 °C 34591.4 hPa WSW 57 km/h 57 km/h 58 % 0 mm 0.0 W/m2 CLR
00:25 -9.8 °C -14.3 °C 34591.4 hPa NW 50.7 km/h 50.7 km/h 58 % 0 mm 0.0 W/m2 CLR
00:30 -9.9 °C -14.3 °C 34601.5 hPa WNW 47.6 km/h 47.6 km/h 59 % 0 mm 0.0 W/m2 CLR
00:35 -9.9 °C -14.3 °C 34601.5 hPa WNW 50.7 km/h 50.7 km/h 59 % 0 mm 0.0 W/m2 CLR
00:40 -10 °C -14.4 °C 34601.5 hPa NW 38.8 km/h 38.8 km/h 59 % 0 mm 0.0 W/m2 CLR
00:41 -10 °C -14.4 °C 34601.5 hPa WNW 35.7 km/h 35.7 km/h 59 % 0 mm 0.0 W/m2 CLR
00:46 -10.1 °C -14.3 °C 34601.5 hPa NW 33.6 km/h 33.6 km/h 60 % 0 mm 0.0 W/m2 CLR
00:51 -10.1 °C -14.3 °C 34601.5 hPa WNW 38.8 km/h 38.8 km/h 60 % 0 mm 0.0 W/m2 CLR
00:56 -10.2 °C -14.4 °C 34601.5 hPa WNW 38.8 km/h 38.8 km/h 60 % 0 mm 0.0 W/m2 CLR
01:01 -10.2 °C -14.4 °C 34601.5 hPa WNW 41.7 km/h 41.7 km/h 60 % 0 mm 0.0 W/m2 CLR
01:06 -10.2 °C -14.3 °C 34611.7 hPa West 26.9 km/h 26.9 km/h 61 % 0 mm 0.0 W/m2 CLR
01:11 -10.3 °C -14.4 °C 34611.7 hPa NW 20.9 km/h 20.9 km/h 61 % 0 mm 0.0 W/m2 CLR
01:16 -10.3 °C -14.4 °C 34611.7 hPa WNW 25.9 km/h 25.9 km/h 61 % 0 mm 0.0 W/m2 CLR
01:21 -10.3 °C -14.3 °C 34625.2 hPa West 29.8 km/h 29.8 km/h 62 % 0 mm 0.0 W/m2 CLR
01:26 -10.4 °C -14.3 °C 34625.2 hPa West 20.8 km/h 20.8 km/h 62 % 0 mm 0.0 W/m2 CLR
01:31 -10.4 °C -14.3 °C 34635.4 hPa WNW 6 km/h 6 km/h 62 % 0 mm 0.0 W/m2 CLR
01:36 -10.4 °C -14.3 °C 34625.2 hPa West 23.8 km/h 23.8 km/h 63 % 0 mm 0.0 W/m2 CLR
01:41 -10.5 °C -14.3 °C 34625.2 hPa WNW 41.7 km/h 41.7 km/h 63 % 0 mm 0.0 W/m2 CLR
01:46 -10.5 °C -14.3 °C 34625.2 hPa West 26.9 km/h 26.9 km/h 63 % 0 mm 0.0 W/m2 CLR
01:51 -10.6 °C -14.3 °C 34625.2 hPa West 26.9 km/h 26.9 km/h 64 % 0 mm 0.0 W/m2 CLR
01:56 -10.6 °C -14.3 °C 34625.2 hPa West 35.7 km/h 35.7 km/h 64 % 0 mm 0.0 W/m2 CLR
02:01 -10.6 °C -14.3 °C 34635.4 hPa West 32.8 km/h 32.8 km/h 64 % 0 mm 0.0 W/m2 CLR
02:06 -10.7 °C -14.3 °C 34635.4 hPa West 26.9 km/h 26.9 km/h 64 % 0 mm 0.0 W/m2 CLR
02:11 -10.7 °C -14.4 °C 34635.4 hPa West 23.3 km/h 23.3 km/h 64 % 0 mm 0.0 W/m2 CLR
02:16 -10.7 °C -14.3 °C 34635.4 hPa WNW 29.8 km/h 29.8 km/h 65 % 0 mm 0.0 W/m2 CLR
02:21 -10.8 °C -14.4 °C 34635.4 hPa WNW 29.8 km/h 29.8 km/h 65 % 0 mm 0.0 W/m2 CLR
02:26 -10.9 °C -14.4 °C 34635.4 hPa NW 23.8 km/h 23.8 km/h 65 % 0 mm 0.0 W/m2 CLR
02:31 -10.9 °C -14.3 °C 34635.4 hPa WNW 23.8 km/h 23.8 km/h 66 % 0 mm 0.0 W/m2 CLR
02:36 -10.9 °C -14.3 °C 34635.4 hPa West 26.9 km/h 26.9 km/h 66 % 0 mm 0.0 W/m2 CLR
02:41 -10.9 °C -14.3 °C 34635.4 hPa WNW 29.8 km/h 29.8 km/h 66 % 0 mm 0.0 W/m2 CLR
02:46 -10.9 °C -14.4 °C 34635.4 hPa WSW 29.8 km/h 29.8 km/h 66 % 0 mm 0.0 W/m2 CLR
02:51 -10.9 °C -14.4 °C 34635.4 hPa West 23.8 km/h 23.8 km/h 66 % 0 mm 0.0 W/m2 CLR
02:56 -11 °C -14.4 °C 34635.4 hPa WNW 29.8 km/h 29.8 km/h 66 % 0 mm 0.0 W/m2 CLR
03:01 -11 °C -14.4 °C 34635.4 hPa West 26.9 km/h 26.9 km/h 66 % 0 mm 0.0 W/m2 CLR
03:06 -11.1 °C -14.5 °C 34635.4 hPa WNW 41.7 km/h 41.7 km/h 66 % 0 mm 0.0 W/m2 CLR
03:11 -11.1 °C -14.4 °C 34635.4 hPa West 23.8 km/h 23.8 km/h 67 % 0 mm 0.0 W/m2 CLR
03:16 -11.1 °C -14.4 °C 34635.4 hPa WSW 6 km/h   67 % 0 mm 0.0 W/m2 CLR
03:21 -11.2 °C -14.5 °C 34635.4 hPa West 23.8 km/h 23.8 km/h 67 % 0 mm 0.0 W/m2 CLR
03:26 -11.2 °C -14.4 °C 34635.4 hPa WSW 9 km/h 9 km/h 68 % 0 mm 0.0 W/m2 CLR
03:31 -11.3 °C -14.5 °C 34635.4 hPa WSW 9 km/h 9 km/h 68 % 0 mm 0.0 W/m2 CLR
03:36 -11.4 °C -14.4 °C 34635.4 hPa WSW 9 km/h 9 km/h 69 % 0 mm 0.0 W/m2 CLR
03:41 -11.4 °C -14.5 °C 34645.6 hPa WSW 15 km/h 15 km/h 69 % 0 mm 0.0 W/m2 CLR
03:46 -11.4 °C -14.5 °C 34635.4 hPa West 10.3 km/h 10.3 km/h 69 % 0 mm 0.0 W/m2 CLR
03:51 -11.4 °C -14.4 °C 34635.4 hPa WNW 11.9 km/h 11.9 km/h 70 % 0 mm 0.0 W/m2 CLR
03:56 -11.4 °C -14.4 °C 34635.4 hPa WSW 29.8 km/h 29.8 km/h 70 % 0 mm 0.0 W/m2 CLR
04:01 -11.4 °C -14.4 °C 34635.4 hPa West 9 km/h 9 km/h 70 % 0 mm 0.0 W/m2 CLR
04:06 -11.5 °C -14.6 °C 34645.6 hPa WSW 9 km/h 9 km/h 69 % 0 mm 0.0 W/m2 CLR
04:11 -11.6 °C -14.5 °C 34645.6 hPa WSW 15.6 km/h 15.6 km/h 70 % 0 mm 0.0 W/m2 CLR
04:16 -11.6 °C -14.5 °C 34635.4 hPa West 23.8 km/h 23.8 km/h 70 % 0 mm 0.0 W/m2 CLR
04:21 -11.6 °C -14.5 °C 34635.4 hPa WSW 29.8 km/h 29.8 km/h 70 % 0 mm 0.0 W/m2 CLR
04:26 -11.6 °C -14.5 °C 34645.6 hPa West 15.6 km/h 15.6 km/h 70 % 0 mm 0.0 W/m2 CLR
04:31 -11.6 °C -14.5 °C 34635.4 hPa West 29.8 km/h 29.8 km/h 70 % 0 mm 0.0 W/m2 CLR
04:36 -11.6 °C -14.5 °C 34635.4 hPa WSW 29.8 km/h 29.8 km/h 70 % 0 mm 0.0 W/m2 CLR
04:41 -11.6 °C -14.5 °C 34645.6 hPa WSW 32.8 km/h 32.8 km/h 70 % 0 mm 0.0 W/m2 CLR
04:46 -11.6 °C -14.5 °C 34645.6 hPa WSW 26.9 km/h 26.9 km/h 70 % 0 mm 0.0 W/m2 CLR
04:51 -11.6 °C -14.5 °C 34635.4 hPa WNW 23.8 km/h 23.8 km/h 70 % 0 mm 0.0 W/m2 CLR
04:56 -11.6 °C -14.5 °C 34635.4 hPa West 23.3 km/h 23.3 km/h 70 % 0 mm 0.0 W/m2 CLR
05:01 -11.4 °C -14.4 °C 34635.4 hPa West 38.8 km/h 38.8 km/h 70 % 0 mm 0.0 W/m2 CLR
05:06 -11.4 °C -14.5 °C 34635.4 hPa West 23.8 km/h 23.8 km/h 69 % 0 mm 0.0 W/m2 CLR
05:11 -11.5 °C -14.6 °C 34635.4 hPa SW 9 km/h   69 % 0 mm 0.0 W/m2 CLR
05:16 -11.5 °C -14.4 °C 34635.4 hPa West 32.8 km/h 32.8 km/h 70 % 0 mm 0.0 W/m2 CLR
05:21 -11.5 °C -14.4 °C 34635.4 hPa WSW 29.8 km/h 29.8 km/h 70 % 0 mm 0.0 W/m2 CLR
05:26 -11.5 °C -14.4 °C 34635.4 hPa SW 9 km/h 9 km/h 70 % 0 mm 0.0 W/m2 CLR
05:31 -11.6 °C -14.5 °C 34635.4 hPa WSW 23.3 km/h 23.3 km/h 70 % 0 mm 0.0 W/m2 CLR
05:36 -11.6 °C -14.4 °C 34635.4 hPa West 33.6 km/h 33.6 km/h 71 % 0 mm 0.0 W/m2 CLR
05:41 -11.6 °C -14.4 °C 34635.4 hPa West 38.8 km/h 38.8 km/h 71 % 0 mm 0.0 W/m2 CLR
05:46 -11.6 °C -14.4 °C 34635.4 hPa West 35.7 km/h 35.7 km/h 71 % 0 mm 0.0 W/m2 CLR
05:51 -11.6 °C -14.4 °C 34635.4 hPa West 26.9 km/h 26.9 km/h 71 % 0 mm 0.0 W/m2 CLR
05:56 -11.6 °C -14.4 °C 34635.4 hPa West 9 km/h 9 km/h 71 % 0 mm 0.0 W/m2 CLR
06:01 -11.7 °C -14.3 °C 34625.2 hPa West 23.8 km/h 23.8 km/h 72 % 0 mm 0.0 W/m2 CLR
06:06 -11.7 °C -14.4 °C 34635.4 hPa WSW 17.9 km/h 17.9 km/h 72 % 0 mm 0.0 W/m2 CLR
06:11 -11.8 °C -14.5 °C 34635.4 hPa WSW 17.9 km/h 17.9 km/h 72 % 0 mm 0.0 W/m2 CLR
06:12 -11.8 °C -14.5 °C 34635.4 hPa WSW 17.9 km/h 17.9 km/h 72 % 0 mm 0.0 W/m2 CLR
06:17 -11.9 °C -14.6 °C 34635.4 hPa WSW 9 km/h 9 km/h 72 % 0 mm 0.0 W/m2 CLR
06:22 -12 °C -14.6 °C 34635.4 hPa West 11.9 km/h 11.9 km/h 73 % 0 mm 0.0 W/m2 CLR
06:27 -12 °C -14.6 °C 34635.4 hPa SW 6 km/h 6 km/h 73 % 0 mm 0.0 W/m2 CLR
06:32 -12.1 °C -14.6 °C 34635.4 hPa SW 9 km/h 9 km/h 74 % 0 mm 0.0 W/m2 CLR
06:37 -12.2 °C -14.6 °C 34635.4 hPa WSW 9 km/h 9 km/h 74 % 0 mm 0.0 W/m2 CLR
06:42 -12.2 °C -14.7 °C 34635.4 hPa WSW 11.9 km/h 11.9 km/h 74 % 0 mm 0.0 W/m2 CLR
06:47 -12.2 °C -14.6 °C 34635.4 hPa WSW 11.9 km/h 11.9 km/h 75 % 0 mm 0.0 W/m2 CLR
06:52 -12.2 °C -14.6 °C 34645.6 hPa WSW 11.9 km/h 11.9 km/h 75 % 0 mm 0.0 W/m2 CLR
06:57 -12.3 °C -14.6 °C 34645.6 hPa WSW 12.9 km/h 12.9 km/h 75 % 0 mm 0.0 W/m2 CLR
07:02 -12.2 °C -14.6 °C 34645.6 hPa WSW 10.3 km/h 10.3 km/h 75 % 0 mm 0.0 W/m2 CLR
07:07 -12.3 °C -14.7 °C 34659.1 hPa SSW 5.1 km/h 5.1 km/h 74 % 0 mm 0.0 W/m2 CLR
07:12 -12.3 °C -14.7 °C 34659.1 hPa SW 6 km/h 6 km/h 75 % 0 mm 0.0 W/m2 OVC
07:17 -12.3 °C -14.7 °C 34659.1 hPa WSW 11.9 km/h 11.9 km/h 75 % 0 mm 0.0 W/m2 OVC
07:22 -12.3 °C -14.7 °C 34659.1 hPa SW 10.3 km/h 10.3 km/h 75 % 0 mm 7.0 W/m2 OVC
07:27 -12.3 °C -14.7 °C 34669.3 hPa Calm     75 % 0 mm 11.0 W/m2 BKN
07:32 -12.3 °C -14.7 °C 34669.3 hPa West 11.9 km/h 11.9 km/h 75 % 0 mm 14.0 W/m2 BKN
07:37 -12.3 °C -14.6 °C 34669.3 hPa WSW 9 km/h 9 km/h 75 % 0 mm 16.0 W/m2 BKN
07:42 -12.3 °C -14.6 °C 34669.3 hPa WSW 9 km/h 9 km/h 75 % 0 mm 19.0 W/m2 BKN
07:47 -12.3 °C -14.6 °C 34669.3 hPa WSW 7.7 km/h 7.7 km/h 75 % 0 mm 23.0 W/m2 BKN
07:52 -12.3 °C -14.6 °C 34669.3 hPa WSW 11.9 km/h 11.9 km/h 75 % 0 mm 32.0 W/m2 BKN
07:57 -12.2 °C -14.6 °C 34669.3 hPa WSW 11.9 km/h 11.9 km/h 75 % 0 mm 40.0 W/m2 BKN
08:02 -12.2 °C -14.6 °C 34682.8 hPa WSW 11.9 km/h 11.9 km/h 75 % 0 mm 51.0 W/m2 SCT
08:07 -12.1 °C -14.6 °C 34682.8 hPa WSW 12.9 km/h 12.9 km/h 74 % 0 mm 63.0 W/m2 SCT
08:12 -12.1 °C -14.5 °C 34682.8 hPa SW 9 km/h 9 km/h 74 % 0 mm 62.0 W/m2 SCT
08:18 -11.9 °C -14.4 °C 34682.8 hPa WSW 9 km/h   74 % 0 mm 91.0 W/m2 CLR
08:23 -11.9 °C -14.3 °C 34682.8 hPa WSW 12.9 km/h 12.9 km/h 74 % 0 mm 109.0 W/m2 CLR
08:28 -11.8 °C -14.4 °C 34682.8 hPa WSW 11.9 km/h 11.9 km/h 73 % 0 mm 127.0 W/m2 CLR
08:33 -11.7 °C -14.4 °C 34682.8 hPa SW 11.9 km/h 11.9 km/h 72 % 0 mm 148.0 W/m2 CLR
08:38 -11.6 °C -14.4 °C 34682.8 hPa WSW 15 km/h 15 km/h 71 % 0 mm 163.0 W/m2 CLR
08:43 -11.5 °C -14.3 °C 34682.8 hPa SW 15 km/h 15 km/h 71 % 0 mm 183.0 W/m2 CLR
08:48 -11.3 °C -14.3 °C 34682.8 hPa WSW 18.2 km/h 18.2 km/h 70 % 0 mm 200.0 W/m2 CLR
08:53 -11.2 °C -14.3 °C 34682.8 hPa West 11.9 km/h 11.9 km/h 69 % 0 mm 220.0 W/m2 CLR
08:58 -11.1 °C -14.3 °C 34682.8 hPa West 17.9 km/h 17.9 km/h 68 % 0 mm 236.0 W/m2 CLR
09:03 -11.1 °C -14.3 °C 34682.8 hPa WNW 20.9 km/h 20.9 km/h 67 % 0 mm 51.0 W/m2 CLR
09:08 -10.9 °C -14.2 °C 34682.8 hPa West 20.9 km/h 20.9 km/h 67 % 0 mm 260.0 W/m2 CLR
09:13 -10.9 °C -14.3 °C 34682.8 hPa NW 32.8 km/h 32.8 km/h 66 % 0 mm 288.0 W/m2 CLR
09:18 -10.8 °C -14.3 °C 34682.8 hPa NW 29.8 km/h 29.8 km/h 66 % 0 mm 308.0 W/m2 CLR
09:23 -10.8 °C -14.2 °C 34682.8 hPa WNW 20.9 km/h 20.9 km/h 66 % 0 mm 323.0 W/m2 CLR
09:28 -10.8 °C -14.3 °C 34682.8 hPa NNW 38.8 km/h 38.8 km/h 65 % 0 mm 339.0 W/m2 CLR
09:33 -10.8 °C -14.3 °C 34682.8 hPa NW 26.9 km/h 26.9 km/h 65 % 0 mm 357.0 W/m2 CLR
09:38 -10.7 °C -14.3 °C 34682.8 hPa NW 23.8 km/h 23.8 km/h 65 % 0 mm 373.0 W/m2 CLR
09:43 -10.6 °C -14.3 °C 34682.8 hPa WNW 33.6 km/h 33.6 km/h 64 % 0 mm 388.0 W/m2 CLR
09:48 -10.6 °C -14.3 °C 34682.8 hPa NW 20.8 km/h 20.8 km/h 64 % 0 mm 408.0 W/m2 CLR
09:53 -10.5 °C -14.2 °C 34682.8 hPa WNW 17.9 km/h 17.9 km/h 64 % 0 mm 424.0 W/m2 CLR
09:58 -10.5 °C -14.3 °C 34682.8 hPa NNW 17.9 km/h 17.9 km/h 63 % 0 mm 439.0 W/m2 CLR
10:03 -10.4 °C -14.4 °C 34682.8 hPa WSW 23.8 km/h 23.8 km/h 62 % 0 mm 454.0 W/m2 CLR
10:08 -10.3 °C -14.3 °C 34682.8 hPa WNW 38.8 km/h 38.8 km/h 62 % 0 mm 475.0 W/m2 CLR
10:13 -10.3 °C -14.2 °C 34682.8 hPa NW 33.6 km/h 33.6 km/h 63 % 0 mm 487.0 W/m2 CLR
10:18 -10.2 °C -14.2 °C 34682.8 hPa NW 25.9 km/h 25.9 km/h 62 % 0 mm 503.0 W/m2 CLR
10:23 -10.1 °C -14.2 °C 34682.8 hPa NW 32.8 km/h 32.8 km/h 61 % 0 mm 517.0 W/m2 CLR
10:28 -10.1 °C -14.2 °C 34669.3 hPa WNW 11.9 km/h 11.9 km/h 61 % 0 mm 531.0 W/m2 CLR
10:34 -10 °C -14.1 °C 34682.8 hPa WNW 15.6 km/h 19.6 km/h 61 % 0 mm 548.0 W/m2 CLR
10:39 -9.9 °C -14.3 °C 34682.8 hPa NW 35.7 km/h 35.7 km/h 59 % 0 mm 564.0 W/m2 CLR
10:44 -9.9 °C -14.1 °C 34682.8 hPa NNW 32.8 km/h 32.8 km/h 60 % 0 mm 577.0 W/m2 CLR
10:49 -9.8 °C -14.2 °C 34669.3 hPa WNW 35.7 km/h 35.7 km/h 59 % 0 mm 591.0 W/m2 CLR
10:54 -9.7 °C -14.2 °C 34682.8 hPa WNW 29.8 km/h 29.8 km/h 58 % 0 mm 606.0 W/m2 CLR
10:59 -9.6 °C -14.1 °C 34669.3 hPa NW 32.8 km/h 32.8 km/h 58 % 0 mm 621.0 W/m2 CLR
11:04 -9.7 °C -14.3 °C 34669.3 hPa NW 33.6 km/h 33.6 km/h 57 % 0 mm 635.0 W/m2 CLR
11:09 -9.6 °C -14.2 °C 34669.3 hPa West 29.8 km/h 29.8 km/h 57 % 0 mm 645.0 W/m2 CLR
11:14 -9.5 °C -14.2 °C 34669.3 hPa WNW 29.8 km/h 29.8 km/h 57 % 0 mm 661.0 W/m2 CLR
11:19 -9.3 °C -14 °C 34669.3 hPa NW 11.9 km/h 11.9 km/h 57 % 0 mm 673.0 W/m2 CLR
11:24 -9.2 °C -14.2 °C 34659.1 hPa NW 9 km/h 9 km/h 55 % 0 mm 693.0 W/m2 CLR
11:29 -9.1 °C -14.1 °C 34659.1 hPa NW 33.6 km/h 33.6 km/h 55 % 0 mm 657.0 W/m2 CLR
11:34 -9.1 °C -14.3 °C 34659.1 hPa NNW 23.8 km/h 23.8 km/h 54 % 0 mm 686.0 W/m2 CLR
11:39 -9.1 °C -14.2 °C 34659.1 hPa NW 32.8 km/h 32.8 km/h 54 % 0 mm 717.0 W/m2 CLR
11:44 -9 °C -14.2 °C 34659.1 hPa WNW 31.1 km/h 31.1 km/h 54 % 0 mm 740.0 W/m2 CLR
11:49 -9 °C -14.3 °C 34659.1 hPa NNW 12.9 km/h 12.9 km/h 53 % 0 mm 758.0 W/m2 CLR
11:54 -8.8 °C -13.8 °C 34659.1 hPa WNW 11.9 km/h 11.9 km/h 55 % 0 mm 742.0 W/m2 CLR
11:59 -8.7 °C -14 °C 34645.6 hPa NNW 25.9 km/h 25.9 km/h 53 % 0 mm 747.0 W/m2 CLR
12:04 -8.6 °C -14.1 °C 34645.6 hPa NW 15 km/h 15 km/h 52 % 0 mm 765.0 W/m2 CLR
12:09 -8.5 °C -14 °C 34645.6 hPa WNW 11.9 km/h 11.9 km/h 52 % 0 mm 784.0 W/m2 CLR
12:14 -8.4 °C -14.1 °C 34645.6 hPa WNW 3.1 km/h 3.1 km/h 51 % 0 mm 796.0 W/m2 CLR
12:19 -8.2 °C -14.1 °C 34645.6 hPa WNW 17.9 km/h 17.9 km/h 50 % 0 mm 802.0 W/m2 CLR
12:24 -8.1 °C -14.1 °C 34645.6 hPa NW 15 km/h 15 km/h 49 % 0 mm 812.0 W/m2 CLR
12:29 -8.1 °C -14.1 °C 34635.4 hPa NW 23.8 km/h 23.8 km/h 49 % 0 mm 810.0 W/m2 CLR
12:34 -8.1 °C -14.4 °C 34635.4 hPa Calm     47 % 0 mm 816.0 W/m2 CLR
12:39 -7.9 °C -13.9 °C 34635.4 hPa NW 32.8 km/h 32.8 km/h 49 % 0 mm 763.0 W/m2 CLR
12:44 -7.9 °C -14.3 °C 34635.4 hPa NW 6 km/h 6 km/h 47 % 0 mm 735.0 W/m2 CLR
12:49 -7.8 °C -14.2 °C 34635.4 hPa WNW 7.7 km/h 7.7 km/h 47 % 0 mm 810.0 W/m2 CLR
12:54 -7.8 °C -14.3 °C 34625.2 hPa WNW 29.8 km/h 29.8 km/h 46 % 0 mm 837.0 W/m2 CLR
12:59 -7.8 °C -14.2 °C 34625.2 hPa WNW 20.9 km/h 20.9 km/h 47 % 0 mm 870.0 W/m2 CLR
13:04 -7.7 °C -14.1 °C 34625.2 hPa NW 25.9 km/h 25.9 km/h 47 % 0 mm 814.0 W/m2 CLR
13:09 -7.5 °C -14.1 °C 34625.2 hPa NW 23.8 km/h 23.8 km/h 46 % 0 mm 875.0 W/m2 CLR
13:14 -7.4 °C -13.8 °C 34611.7 hPa WNW 28.5 km/h 28.5 km/h 47 % 0 mm 821.0 W/m2 CLR
13:20 -7.2 °C -14.2 °C 34611.7 hPa WNW 29.8 km/h 29.8 km/h 44 % 0 mm 833.0 W/m2 CLR
13:22 -7.2 °C -14.2 °C 34611.7 hPa WNW 15.6 km/h 15.6 km/h 44 % 0 mm 740.0 W/m2 CLR
13:27 -7.2 °C -14.1 °C 34611.7 hPa NNW 25.9 km/h 25.9 km/h 44 % 0 mm 891.0 W/m2 CLR
13:32 -7.1 °C -14.4 °C 34601.5 hPa NW 9 km/h 9 km/h 42 % 0 mm 912.0 W/m2 CLR
13:37 -7 °C -14.4 °C 34601.5 hPa NW 17.9 km/h 17.9 km/h 42 % 0 mm 874.0 W/m2 CLR
13:42 -6.8 °C -14 °C 34601.5 hPa NW 29.8 km/h 29.8 km/h 43 % 0 mm 835.0 W/m2 CLR
13:47 -6.8 °C -14.4 °C 34601.5 hPa NW 6 km/h 6 km/h 41 % 0 mm 900.0 W/m2 CLR
13:52 -6.8 °C -14.2 °C 34591.4 hPa NNW 11.9 km/h 11.9 km/h 42 % 0 mm 904.0 W/m2 CLR
13:57 -6.6 °C -14.2 °C 34591.4 hPa West 11.9 km/h 11.9 km/h 41 % 0 mm 893.0 W/m2 CLR
14:02 -6.6 °C -14.6 °C 34591.4 hPa WNW 20.9 km/h 20.9 km/h 39 % 0 mm 809.0 W/m2 CLR
14:07 -6.6 °C -14.4 °C 34591.4 hPa WNW 12.9 km/h 12.9 km/h 40 % 0 mm 877.0 W/m2 CLR
14:12 -6.6 °C -14.1 °C 34577.8 hPa Calm     41 % 0 mm 900.0 W/m2 CLR
14:17 -6.3 °C -13.9 °C 34577.8 hPa NW 10.3 km/h 10.3 km/h 41 % 0 mm 872.0 W/m2 CLR
14:22 -6.2 °C -13.8 °C 34577.8 hPa Calm     41 % 0 mm 905.0 W/m2 CLR
14:27 -6.1 °C -14.1 °C 34577.8 hPa North 6 km/h 6 km/h 39 % 0 mm 896.0 W/m2 CLR
14:32 -5.9 °C -14 °C 34577.8 hPa West 18.2 km/h 18.2 km/h 39 % 0 mm 893.0 W/m2 CLR
14:37 -5.9 °C -14.4 °C 34567.7 hPa West 11.9 km/h 11.9 km/h 37 % 0 mm 888.0 W/m2 CLR
14:42 -5.9 °C -14.4 °C 34567.7 hPa WSW 9 km/h 9 km/h 37 % 0 mm 863.0 W/m2 CLR
14:47 -5.8 °C -14.1 °C 34567.7 hPa NNE 9 km/h 9 km/h 38 % 0 mm 868.0 W/m2 CLR
14:52 -5.8 °C -14.1 °C 34567.7 hPa NNE 6 km/h 6 km/h 38 % 0 mm 865.0 W/m2 CLR
14:58 -5.7 °C -14.1 °C 34554.1 hPa NW 18.2 km/h 18.2 km/h 38 % 0 mm 867.0 W/m2 CLR
15:03 -5.6 °C -14.4 °C 34567.7 hPa Calm   0.5 km/h 36 % 0 mm 858.0 W/m2 CLR
15:08 -5.4 °C -13.9 °C 34554.1 hPa North 9 km/h 9 km/h 37 % 0 mm 872.0 W/m2 CLR
15:13 -5.2 °C -14 °C 34554.1 hPa West 9 km/h 9 km/h 36 % 0 mm 853.0 W/m2 CLR
15:18 -5.2 °C -13.9 °C 34554.1 hPa NW 23.8 km/h 23.8 km/h 36 % 0 mm 853.0 W/m2 CLR
15:23 -5.2 °C -14.4 °C 34554.1 hPa Calm     34 % 0 mm 844.0 W/m2 CLR
15:28 -5.1 °C -14.8 °C 34544 hPa West 20.9 km/h 20.9 km/h 32 % 0 mm 842.0 W/m2 CLR
15:33 -5.2 °C -14.9 °C 34544 hPa Calm     32 % 0 mm 838.0 W/m2 CLR
15:38 -5 °C -14.1 °C 34544 hPa NNW 2.6 km/h 2.6 km/h 35 % 0 mm 816.0 W/m2 CLR
15:43 -4.9 °C -14.5 °C 34544 hPa ENE 20.9 km/h 20.9 km/h 33 % 0 mm 819.0 W/m2 CLR
15:48 -4.9 °C -14.2 °C 34533.8 hPa ENE 9 km/h 9 km/h 34 % 0 mm 807.0 W/m2 CLR
15:53 -4.8 °C -14.3 °C 34533.8 hPa ENE 20.9 km/h 20.9 km/h 33 % 0 mm 795.0 W/m2 CLR
15:58 -4.8 °C -14.3 °C 34533.8 hPa NNE 20.8 km/h 20.8 km/h 33 % 0 mm 737.0 W/m2 CLR
16:03 -4.9 °C -14.5 °C 34533.8 hPa NNW 20.9 km/h 20.9 km/h 33 % 0 mm 759.0 W/m2 CLR
16:07 -4.9 °C -14.7 °C 34520.3 hPa NE 23.8 km/h 23.8 km/h 32 % 0 mm 777.0 W/m2 CLR
16:12 -4.8 °C -14.6 °C 34520.3 hPa North 11.9 km/h 11.9 km/h 32 % 0 mm 758.0 W/m2 CLR
16:17 -4.8 °C -14.6 °C 34520.3 hPa NE 35.7 km/h 35.7 km/h 32 % 0 mm 722.0 W/m2 CLR
16:22 -4.9 °C -14.9 °C 34520.3 hPa North 17.9 km/h 17.9 km/h 31 % 0 mm 693.0 W/m2 CLR
16:27 -4.9 °C -15.2 °C 34520.3 hPa NNW 32.8 km/h 32.8 km/h 30 % 0 mm 703.0 W/m2 CLR
16:32 -4.9 °C -15 °C 34520.3 hPa ENE 10.3 km/h 10.3 km/h 31 % 0 mm 722.0 W/m2 CLR
16:37 -4.8 °C -15.2 °C 34520.3 hPa NNW 11.9 km/h 11.9 km/h 30 % 0 mm 731.0 W/m2 CLR
16:42 -4.8 °C -15.1 °C 34520.3 hPa NNE 9 km/h 9 km/h 30 % 0 mm 722.0 W/m2 CLR
16:47 -4.8 °C -15.1 °C 34510.1 hPa NE 9 km/h 9 km/h 30 % 0 mm 710.0 W/m2 CLR
16:52 -4.8 °C -15.4 °C 34510.1 hPa NNE 29.8 km/h 29.8 km/h 29 % 0 mm 668.0 W/m2 CLR
16:57 -4.9 °C -14.9 °C 34510.1 hPa NNE 29.8 km/h 29.8 km/h 31 % 0 mm 666.0 W/m2 CLR
17:02 -4.8 °C -15.1 °C 34510.1 hPa NNW 9 km/h 9 km/h 30 % 0 mm 693.0 W/m2 CLR
17:07 -4.7 °C -15.3 °C 34496.6 hPa NNW 17.9 km/h 17.9 km/h 29 % 0 mm 512.0 W/m2 CLR
17:12 -4.8 °C -15.4 °C 34496.6 hPa NNE 29.8 km/h 29.8 km/h 29 % 0 mm 457.0 W/m2 CLR
17:17 -5 °C -15.3 °C 34496.6 hPa NNW 29.8 km/h 29.8 km/h 30 % 0 mm 292.0 W/m2 CLR
17:22 -5.1 °C -15.1 °C 34496.6 hPa Calm     31 % 0 mm 457.0 W/m2 CLR
17:27 -5 °C -15.3 °C 34496.6 hPa NNW 9 km/h 9 km/h 30 % 0 mm 471.0 W/m2 CLR
17:32 -4.9 °C -15.2 °C 34496.6 hPa NW 3.1 km/h 3.1 km/h 30 % 0 mm 513.0 W/m2 CLR
17:37 -4.8 °C -15.4 °C 34496.6 hPa NNE 15.6 km/h 15.6 km/h 29 % 0 mm 548.0 W/m2 CLR
17:42 -4.8 °C -15.1 °C 34496.6 hPa NNW 17.9 km/h 17.9 km/h 30 % 0 mm 501.0 W/m2 CLR
17:47 -4.8 °C -15.4 °C 34496.6 hPa Calm     29 % 0 mm 478.0 W/m2 CLR
17:52 -4.8 °C -15.1 °C 34486.4 hPa NNW 20.9 km/h 20.9 km/h 30 % 0 mm 438.0 W/m2 CLR
17:57 -4.8 °C -15.1 °C 34496.6 hPa NNW 15 km/h 15 km/h 30 % 0 mm 466.0 W/m2 CLR
18:02 -4.8 °C -15.1 °C 34496.6 hPa Calm     30 % 0 mm 471.0 W/m2 CLR
18:07 -4.7 °C -15.1 °C 34486.4 hPa NNW 3.1 km/h   30 % 0 mm 473.0 W/m2 CLR
18:12 -4.6 °C -14.9 °C 34486.4 hPa Calm     30 % 0 mm 436.0 W/m2 CLR
18:17 -4.7 °C -15 °C 34486.4 hPa North 17.9 km/h 17.9 km/h 30 % 0 mm 355.0 W/m2 CLR
18:22 -4.8 °C -15.1 °C 34486.4 hPa Calm     30 % 0 mm 330.0 W/m2 CLR
18:27 -4.7 °C -14.6 °C 34486.4 hPa Calm     32 % 0 mm 250.0 W/m2 CLR
18:32 -4.6 °C -14.9 °C 34486.4 hPa Calm     30 % 0 mm 237.0 W/m2 CLR
18:37 -4.6 °C -14.7 °C 34486.4 hPa NNE 17.9 km/h 17.9 km/h 31 % 0 mm 302.0 W/m2 CLR
18:42 -4.8 °C -14.6 °C 34486.4 hPa North 17.9 km/h 17.9 km/h 32 % 0 mm 369.0 W/m2 CLR
18:47 -4.8 °C -14.6 °C 34486.4 hPa North 11.9 km/h 11.9 km/h 32 % 0 mm 237.0 W/m2 CLR
18:52 -4.8 °C -14.3 °C 34486.4 hPa NNW 6 km/h 6 km/h 33 % 0 mm 295.0 W/m2 CLR
18:57 -4.8 °C -14.6 °C 34486.4 hPa North 7.7 km/h 7.7 km/h 32 % 0 mm 316.0 W/m2 CLR
19:02 -4.8 °C -14.3 °C 34486.4 hPa NW 9 km/h   33 % 0 mm 301.0 W/m2 CLR
19:07 -4.8 °C -14.6 °C 34486.4 hPa NNW 11.9 km/h 11.9 km/h 32 % 0 mm 287.0 W/m2 CLR
19:09 -4.8 °C -14.6 °C 34486.4 hPa NNW 9 km/h 9 km/h 32 % 0 mm 283.0 W/m2 CLR
19:14 -4.9 °C -14.7 °C 34486.4 hPa North 9 km/h 9.3 km/h 32 % 0 mm 267.0 W/m2 CLR
19:19 -4.9 °C -14.5 °C 34486.4 hPa Calm     33 % 0 mm 229.0 W/m2 CLR
19:24 -4.9 °C -14.7 °C 34486.4 hPa Calm     32 % 0 mm 204.0 W/m2 CLR
19:29 -4.8 °C -14.8 °C 34486.4 hPa Calm     31 % 0 mm 186.0 W/m2 CLR
19:34 -4.8 °C -14.8 °C 34486.4 hPa Calm     31 % 0 mm 163.0 W/m2 CLR
19:39 -4.9 °C -14.9 °C 34486.4 hPa Calm     31 % 0 mm 137.0 W/m2 CLR
19:44 -4.9 °C -14.7 °C 34486.4 hPa Calm     32 % 0 mm 118.0 W/m2 CLR
19:49 -4.9 °C -14.9 °C 34476.3 hPa Calm     31 % 0 mm 98.0 W/m2 CLR
19:54 -4.9 °C -14.5 °C 34476.3 hPa Calm     33 % 0 mm 79.0 W/m2 FEW
19:59 -5.1 °C -14.6 °C 34476.3 hPa NW 6 km/h   33 % 0 mm 54.0 W/m2 SCT
20:04 -5.2 °C -14.9 °C 34476.3 hPa NW 5.1 km/h 5.1 km/h 32 % 0 mm 32.0 W/m2 BKN
20:09 -5.4 °C -14.9 °C 34476.3 hPa NW 11.9 km/h 11.9 km/h 33 % 0 mm 33.0 W/m2 BKN
20:14 -5.6 °C -14.8 °C 34476.3 hPa NW 9 km/h 9 km/h 34 % 0 mm 25.0 W/m2 BKN
20:19 -5.8 °C -14.7 °C 34476.3 hPa Calm     35 % 0 mm 21.0 W/m2 BKN
20:24 -5.9 °C -14.9 °C 34476.3 hPa Calm     35 % 0 mm 16.0 W/m2 BKN
20:29 -6.1 °C -14.9 °C 34476.3 hPa Calm     35 % 0 mm 11.0 W/m2 BKN
20:34 -6.2 °C -14.9 °C 34476.3 hPa Calm     36 % 0 mm 7.0 W/m2 BKN
20:39 -6.5 °C -14.9 °C 34476.3 hPa Calm     37 % 0 mm 5.0 W/m2 OVC
20:44 -6.8 °C -14.9 °C 34476.3 hPa Calm     38 % 0 mm 0.0 W/m2 OVC
20:49 -7.1 °C -15.1 °C 34476.3 hPa Calm     39 % 0 mm 0.0 W/m2 OVC
20:54 -7.3 °C -14.9 °C 34476.3 hPa West 6 km/h 6 km/h 40 % 0 mm 0.0 W/m2 CLR
20:59 -7.4 °C -14.9 °C 34476.3 hPa Calm     41 % 0 mm 0.0 W/m2 CLR
21:04 -7.6 °C -15.1 °C 34486.4 hPa Calm     41 % 0 mm 0.0 W/m2 CLR
21:09 -7.6 °C -15.1 °C 34486.4 hPa Calm     41 % 0 mm 0.0 W/m2 CLR
21:14 -7.7 °C -15.1 °C 34486.4 hPa NW 11.9 km/h 11.9 km/h 42 % 0 mm 0.0 W/m2 CLR
21:19 -7.8 °C -15.1 °C 34486.4 hPa Calm     42 % 0 mm 0.0 W/m2 CLR
21:24 -7.8 °C -15.1 °C 34486.4 hPa Calm     42 % 0 mm 0.0 W/m2 CLR
21:29 -8 °C -14.9 °C 34486.4 hPa Calm     44 % 0 mm 0.0 W/m2 CLR
21:34 -8.2 °C -14.7 °C 34496.6 hPa Calm     46 % 0 mm 0.0 W/m2 CLR
21:39 -8.4 °C -14.7 °C 34496.6 hPa Calm     47 % 0 mm 0.0 W/m2 CLR
21:44 -8.6 °C -14.9 °C 34496.6 hPa Calm     47 % 0 mm 0.0 W/m2 CLR
21:49 -8.7 °C -14.8 °C 34496.6 hPa Calm     48 % 0 mm 0.0 W/m2 CLR
21:54 -8.8 °C -14.8 °C 34496.6 hPa Calm     49 % 0 mm 0.0 W/m2 CLR
21:59 -9.1 °C -14.8 °C 34496.6 hPa Calm     50 % 0 mm 0.0 W/m2 CLR
22:04 -9.2 °C -14.9 °C 34496.6 hPa Calm     50 % 0 mm 0.0 W/m2 CLR
22:09 -9.2 °C -15 °C 34510.1 hPa Calm     50 % 0 mm 0.0 W/m2 CLR
22:14 -9.3 °C -15.1 °C 34510.1 hPa Calm     50 % 0 mm 0.0 W/m2 CLR
22:19 -9.3 °C -14.8 °C 34510.1 hPa Calm     52 % 0 mm 0.0 W/m2 CLR
22:24 -9.5 °C -14.9 °C 34510.1 hPa Calm     52 % 0 mm 0.0 W/m2 CLR
22:29 -9.6 °C -14.9 °C 34510.1 hPa SW 6 km/h 6 km/h 53 % 0 mm 0.0 W/m2 CLR
22:34 -9.8 °C -14.9 °C 34510.1 hPa Calm     54 % 0 mm 0.0 W/m2 CLR
22:39 -9.9 °C -14.9 °C 34520.3 hPa Calm     55 % 0 mm 0.0 W/m2 CLR
22:44 -10.1 °C -15 °C 34520.3 hPa Calm     55 % 0 mm 0.0 W/m2 CLR
22:49 -10.1 °C -14.9 °C 34520.3 hPa Calm     56 % 0 mm 0.0 W/m2 CLR
22:54 -10.2 °C -15 °C 34520.3 hPa Calm     56 % 0 mm 0.0 W/m2 CLR
22:59 -10.4 °C -14.9 °C 34520.3 hPa Calm     58 % 0 mm 0.0 W/m2 CLR
23:04 -10.5 °C -15 °C 34520.3 hPa SSW 9 km/h 9 km/h 58 % 0 mm 0.0 W/m2 CLR
23:09 -10.7 °C -15.1 °C 34520.3 hPa SW 6 km/h 6 km/h 59 % 0 mm 0.0 W/m2 CLR
23:14 -10.8 °C -15.1 °C 34520.3 hPa SW 3.1 km/h   59 % 0 mm 0.0 W/m2 CLR
23:19 -10.9 °C -15.1 °C 34520.3 hPa Calm     60 % 0 mm 0.0 W/m2 CLR
23:24 -10.9 °C -15.1 °C 34520.3 hPa Calm     60 % 0 mm 0.0 W/m2 CLR
23:29 -10.9 °C -15.2 °C 34520.3 hPa Calm     60 % 0 mm 0.0 W/m2 CLR
23:34 -11 °C -15.2 °C 34520.3 hPa Calm     60 % 0 mm 0.0 W/m2 CLR
23:39 -11.1 °C -15.1 °C 34520.3 hPa Calm     61 % 0 mm 0.0 W/m2 CLR
23:44 -11.1 °C -15.2 °C 34520.3 hPa SW 6 km/h 6 km/h 61 % 0 mm 0.0 W/m2 CLR
23:49 -11.2 °C -15.2 °C 34520.3 hPa Calm     61 % 0 mm 0.0 W/m2 CLR
23:54 -11.2 °C -15.2 °C 34533.8 hPa Calm     62 % 0 mm 0.0 W/m2 CLR
23:59 -11.3 °C -15.2 °C 34533.8 hPa SW 5.1 km/h 5.1 km/h 62 % 0 mm 0.0 W/m2 CLR
Lo Temps de Massalio
Compliments of Weather Underground - 1.25 mb